Time,TemperatureF,DewpointF,PressureIn,WindDirection,WindDirectionDegrees,WindSpeedMPH,WindSpeedGustMPH,Humidity,HourlyPrecipIn,Conditions,Clouds,dailyrainin,SoftwareType,DateUTC
2013-07-16 00:03:00,77.2,69.8,30.17,West,281,0.0,0.0,78,0.00,RA,,0.00,WeatherDisplay:10.37,2013-07-16 05:03:00,
2013-07-16 00:08:00,77.2,70.2,30.17,West,281,0.0,0.0,79,0.00,RA,,0.00,WeatherDisplay:10.37,2013-07-16 05:08:00,
2013-07-16 00:13:00,77.4,70.3,30.17,West,281,0.0,0.0,79,0.00,CLR,,0.00,WeatherDisplay:10.37,2013-07-16 05:13:00,
2013-07-16 00:18:00,77.2,70.2,30.17,West,281,0.0,0.0,79,0.00,CLR,,0.00,WeatherDisplay:10.37,2013-07-16 05:18:00,
2013-07-16 00:23:00,77.4,70.3,30.17,West,281,0.0,0.0,79,0.00,CLR,,0.00,WeatherDisplay:10.37,2013-07-16 05:23:00,
2013-07-16 00:28:00,77.2,70.2,30.17,West,281,0.0,0.0,79,0.00,CLR,,0.00,WeatherDisplay:10.37,2013-07-16 05:28:00,
2013-07-16 00:33:00,77.2,70.5,30.17,West,281,0.0,0.0,80,0.00,CLR,,0.00,WeatherDisplay:10.37,2013-07-16 05:33:00,
2013-07-16 00:38:00,77.0,70.0,30.17,West,281,0.0,0.0,79,0.00,CLR,,0.00,WeatherDisplay:10.37,2013-07-16 05:38:00,
2013-07-16 00:43:00,76.8,70.2,30.17,West,281,0.0,0.0,80,0.00,CLR,,0.00,WeatherDisplay:10.37,2013-07-16 05:43:00,
2013-07-16 00:48:00,77.0,70.7,30.17,West,281,0.0,0.0,81,0.00,CLR,,0.00,WeatherDisplay:10.37,2013-07-16 05:48:00,
2013-07-16 00:53:00,77.0,70.7,30.17,West,281,0.0,0.0,81,0.00,CLR,,0.00,WeatherDisplay:10.37,2013-07-16 05:53:00,
2013-07-16 00:58:00,76.8,70.5,30.17,West,281,0.0,0.0,81,0.00,CLR,,0.00,WeatherDisplay:10.37,2013-07-16 05:58:00,
2013-07-16 01:03:00,76.8,70.9,30.17,West,281,0.0,0.0,82,0.00,CLR,,0.00,WeatherDisplay:10.37,2013-07-16 06:03:00,
2013-07-16 01:08:00,76.8,70.9,30.17,West,281,0.0,0.0,82,0.00,CLR,,0.00,WeatherDisplay:10.37,2013-07-16 06:08:00,
2013-07-16 01:13:00,76.6,70.7,30.17,West,281,0.0,0.0,82,0.00,CLR,,0.00,WeatherDisplay:10.37,2013-07-16 06:13:00,
2013-07-16 01:18:00,76.8,71.6,30.17,West,281,0.0,0.0,84,0.00,CLR,,0.00,WeatherDisplay:10.37,2013-07-16 06:18:00,
2013-07-16 01:23:00,76.6,71.1,30.17,West,281,0.0,0.0,83,0.00,CLR,,0.00,WeatherDisplay:10.37,2013-07-16 06:23:00,
2013-07-16 01:28:00,76.6,71.1,30.17,West,281,0.0,0.0,83,0.00,CLR,,0.00,WeatherDisplay:10.37,2013-07-16 06:28:00,
2013-07-16 01:33:00,76.6,71.4,30.17,West,281,0.0,0.0,84,0.00,CLR,,0.00,WeatherDisplay:10.37,2013-07-16 06:33:00,
2013-07-16 01:38:00,76.6,71.4,30.17,West,281,0.0,0.0,84,0.00,CLR,,0.00,WeatherDisplay:10.37,2013-07-16 06:38:00,
2013-07-16 01:43:00,76.6,71.4,30.17,West,281,0.0,0.0,84,0.00,CLR,,0.00,WeatherDisplay:10.37,2013-07-16 06:43:00,
2013-07-16 01:48:00,76.5,71.3,30.17,West,281,0.0,0.0,84,0.00,CLR,,0.00,WeatherDisplay:10.37,2013-07-16 06:48:00,
2013-07-16 01:53:00,76.5,71.3,30.17,West,281,0.0,0.0,84,0.00,CLR,,0.00,WeatherDisplay:10.37,2013-07-16 06:53:00,
2013-07-16 01:58:00,76.3,71.1,30.17,West,281,0.0,0.0,84,0.00,CLR,,0.00,WeatherDisplay:10.37,2013-07-16 06:58:00,
2013-07-16 02:03:00,76.3,71.4,30.17,West,281,0.0,0.0,85,0.00,CLR,,0.00,WeatherDisplay:10.37,2013-07-16 07:03:00,
2013-07-16 02:08:00,76.5,72.0,30.17,West,281,0.0,0.0,86,0.00,CLR,,0.00,WeatherDisplay:10.37,2013-07-16 07:08:00,
2013-07-16 02:13:00,76.5,72.0,30.17,West,281,0.0,0.0,86,0.00,CLR,,0.00,WeatherDisplay:10.37,2013-07-16 07:13:00,
2013-07-16 02:18:00,76.6,72.1,30.17,West,281,0.0,0.0,86,0.00,CLR,,0.00,WeatherDisplay:10.37,2013-07-16 07:18:00,
2013-07-16 02:23:00,76.5,72.0,30.17,West,281,0.0,0.0,86,0.00,CLR,,0.00,WeatherDisplay:10.37,2013-07-16 07:23:00,
2013-07-16 02:28:00,76.5,72.0,30.17,West,281,0.0,0.0,86,0.00,CLR,,0.00,WeatherDisplay:10.37,2013-07-16 07:28:00,
2013-07-16 02:33:00,76.5,72.3,30.17,West,281,0.0,0.0,87,0.00,CLR,,0.00,WeatherDisplay:10.37,2013-07-16 07:33:00,
2013-07-16 02:38:00,76.3,71.8,30.17,West,281,0.0,0.0,86,0.00,CLR,,0.00,WeatherDisplay:10.37,2013-07-16 07:38:00,
2013-07-16 02:43:00,76.3,71.8,30.17,West,281,0.0,0.0,86,0.00,CLR,,0.00,WeatherDisplay:10.37,2013-07-16 07:43:00,
2013-07-16 02:48:00,76.1,71.6,30.17,West,281,0.0,0.0,86,0.00,CLR,,0.00,WeatherDisplay:10.37,2013-07-16 07:48:00,
2013-07-16 02:53:00,76.1,71.9,30.17,West,281,0.0,0.0,87,0.00,CLR,,0.00,WeatherDisplay:10.37,2013-07-16 07:53:00,
2013-07-16 02:58:00,76.1,71.9,30.17,West,281,0.0,0.0,87,0.00,CLR,,0.00,WeatherDisplay:10.37,2013-07-16 07:58:00,
2013-07-16 03:03:00,76.1,72.3,30.17,West,281,0.0,0.0,88,0.00,CLR,,0.00,WeatherDisplay:10.37,2013-07-16 08:03:00,
2013-07-16 03:08:00,76.1,72.3,30.17,West,281,0.0,0.0,88,0.00,CLR,,0.00,WeatherDisplay:10.37,2013-07-16 08:08:00,
2013-07-16 03:13:00,76.1,72.3,30.17,West,281,0.0,0.0,88,0.00,CLR,,0.00,WeatherDisplay:10.37,2013-07-16 08:13:00,
2013-07-16 03:18:00,76.1,72.3,30.17,West,281,0.0,0.0,88,0.00,CLR,,0.00,WeatherDisplay:10.37,2013-07-16 08:18:00,
2013-07-16 03:23:00,76.3,72.8,30.17,West,281,0.0,0.0,89,0.00,CLR,,0.00,WeatherDisplay:10.37,2013-07-16 08:23:00,
2013-07-16 03:28:00,76.5,73.0,30.17,West,281,0.0,0.0,89,0.00,CLR,,0.00,WeatherDisplay:10.37,2013-07-16 08:28:00,
2013-07-16 03:33:00,76.3,72.5,30.17,West,281,0.0,0.0,88,0.00,CLR,,0.00,WeatherDisplay:10.37,2013-07-16 08:33:00,
2013-07-16 03:38:00,76.3,72.8,30.17,West,281,0.0,0.0,89,0.00,CLR,,0.00,WeatherDisplay:10.37,2013-07-16 08:38:00,
2013-07-16 03:43:00,76.5,73.0,30.17,West,281,0.0,0.0,89,0.00,CLR,,0.00,WeatherDisplay:10.37,2013-07-16 08:43:00,
2013-07-16 03:48:00,76.5,73.0,30.17,West,281,0.0,0.0,89,0.00,CLR,,0.00,WeatherDisplay:10.37,2013-07-16 08:48:00,
2013-07-16 03:53:00,76.5,73.3,30.17,West,281,0.0,0.0,90,0.00,CLR,,0.00,WeatherDisplay:10.37,2013-07-16 08:53:00,
2013-07-16 03:58:00,76.5,73.3,30.17,West,281,0.0,0.0,90,0.00,CLR,,0.00,WeatherDisplay:10.37,2013-07-16 08:58:00,
2013-07-16 04:03:00,76.6,73.5,30.17,West,281,0.0,0.0,90,0.00,CLR,,0.00,WeatherDisplay:10.37,2013-07-16 09:03:00,
2013-07-16 04:08:00,76.6,73.5,30.17,West,281,0.0,0.0,90,0.00,CLR,,0.00,WeatherDisplay:10.37,2013-07-16 09:08:00,
2013-07-16 04:13:00,76.5,73.3,30.17,West,281,0.0,0.0,90,0.00,CLR,,0.00,WeatherDisplay:10.37,2013-07-16 09:13:00,
2013-07-16 04:18:00,76.3,72.8,30.17,West,281,0.0,0.0,89,0.00,CLR,,0.00,WeatherDisplay:10.37,2013-07-16 09:18:00,
2013-07-16 04:23:00,76.3,72.8,30.17,West,281,0.0,0.0,89,0.00,CLR,,0.00,WeatherDisplay:10.37,2013-07-16 09:23:00,
2013-07-16 04:28:00,76.3,73.1,30.17,West,281,0.0,0.0,90,0.00,CLR,,0.00,WeatherDisplay:10.37,2013-07-16 09:28:00,
2013-07-16 04:33:00,76.5,73.6,30.17,West,281,0.0,0.0,91,0.00,CLR,,0.00,WeatherDisplay:10.37,2013-07-16 09:33:00,
2013-07-16 04:38:00,76.5,73.6,30.17,West,281,0.0,0.0,91,0.00,CLR,,0.00,WeatherDisplay:10.37,2013-07-16 09:38:00,
2013-07-16 04:43:00,76.3,73.1,30.17,West,281,0.0,0.0,90,0.00,CLR,,0.00,WeatherDisplay:10.37,2013-07-16 09:43:00,
2013-07-16 04:48:00,76.1,73.0,30.17,West,281,0.0,0.0,90,0.00,CLR,,0.00,WeatherDisplay:10.37,2013-07-16 09:48:00,
2013-07-16 04:53:00,76.1,73.3,30.17,West,281,0.0,0.0,91,0.00,CLR,,0.00,WeatherDisplay:10.37,2013-07-16 09:53:00,
2013-07-16 04:58:00,76.3,73.5,30.17,West,281,0.0,0.0,91,0.00,CLR,,0.00,WeatherDisplay:10.37,2013-07-16 09:58:00,
2013-07-16 05:03:00,76.1,73.0,30.19,West,281,0.0,0.0,90,0.00,CLR,,0.00,WeatherDisplay:10.37,2013-07-16 10:03:00,
2013-07-16 05:08:00,76.1,73.0,30.19,West,281,0.0,0.0,90,0.00,CLR,,0.00,WeatherDisplay:10.37,2013-07-16 10:08:00,
2013-07-16 05:13:00,76.1,73.3,30.19,West,281,0.0,0.0,91,0.00,CLR,,0.00,WeatherDisplay:10.37,2013-07-16 10:13:00,
2013-07-16 05:18:00,76.3,73.8,30.19,West,281,0.0,0.0,92,0.00,CLR,,0.00,WeatherDisplay:10.37,2013-07-16 10:18:00,
2013-07-16 05:23:00,76.6,74.5,30.19,West,281,0.0,0.0,93,0.00,CLR,,0.00,WeatherDisplay:10.37,2013-07-16 10:23:00,
2013-07-16 05:28:00,76.6,74.5,30.19,West,281,0.0,0.0,93,0.00,CLR,,0.00,WeatherDisplay:10.37,2013-07-16 10:28:00,
2013-07-16 05:33:00,76.6,74.1,30.19,West,281,0.0,0.0,92,0.00,CLR,,0.00,WeatherDisplay:10.37,2013-07-16 10:33:00,
2013-07-16 05:38:00,76.6,74.1,30.19,West,281,0.0,0.0,92,0.00,CLR,,0.00,WeatherDisplay:10.37,2013-07-16 10:38:00,
2013-07-16 05:43:00,76.5,74.0,30.19,West,281,0.0,0.0,92,0.00,CLR,,0.00,WeatherDisplay:10.37,2013-07-16 10:43:00,
2013-07-16 05:48:00,76.5,74.0,30.19,West,281,0.0,0.0,92,0.00,CLR,,0.00,WeatherDisplay:10.37,2013-07-16 10:48:00,
2013-07-16 05:53:00,76.5,74.0,30.19,West,281,0.0,0.0,92,0.00,CLR,,0.00,WeatherDisplay:10.37,2013-07-16 10:53:00,
2013-07-16 05:58:00,76.5,74.3,30.19,West,281,0.0,0.0,93,0.00,CLR,,0.00,WeatherDisplay:10.37,2013-07-16 10:58:00,
2013-07-16 06:03:00,76.6,74.5,30.19,West,281,0.0,0.0,93,0.00,CLR,,0.00,WeatherDisplay:10.37,2013-07-16 11:03:00,
2013-07-16 06:08:00,76.6,74.5,30.19,West,281,0.0,0.0,93,0.00,CLR,,0.00,WeatherDisplay:10.37,2013-07-16 11:08:00,
2013-07-16 06:13:00,76.6,74.5,30.19,West,281,0.0,0.0,93,0.00,CLR,,0.00,WeatherDisplay:10.37,2013-07-16 11:13:00,
2013-07-16 06:18:00,76.6,74.5,30.19,West,281,0.0,0.0,93,0.00,CLR,,0.00,WeatherDisplay:10.37,2013-07-16 11:18:00,
2013-07-16 06:23:00,76.6,74.5,30.19,West,281,0.0,0.0,93,0.00,CLR,,0.00,WeatherDisplay:10.37,2013-07-16 11:23:00,
2013-07-16 06:28:00,76.6,74.5,30.19,West,281,0.0,0.0,93,0.00,CLR,,0.00,WeatherDisplay:10.37,2013-07-16 11:28:00,
2013-07-16 06:33:00,76.6,74.5,30.19,West,281,0.0,0.0,93,0.00,CLR,,0.00,WeatherDisplay:10.37,2013-07-16 11:33:00,
2013-07-16 06:38:00,76.6,74.5,30.19,West,281,0.0,0.0,93,0.00,CLR,,0.00,WeatherDisplay:10.37,2013-07-16 11:38:00,
2013-07-16 06:43:00,76.8,74.6,30.19,West,281,0.0,0.0,93,0.00,CLR,,0.00,WeatherDisplay:10.37,2013-07-16 11:43:00,
2013-07-16 06:48:00,77.0,75.1,30.19,West,281,0.0,0.0,94,0.00,CLR,,0.00,WeatherDisplay:10.37,2013-07-16 11:48:00,
2013-07-16 06:53:00,77.2,75.3,30.19,West,281,0.0,0.0,94,0.00,CLR,,0.00,WeatherDisplay:10.37,2013-07-16 11:53:00,
2013-07-16 06:58:00,77.4,75.5,30.19,West,281,0.0,0.0,94,0.00,CLR,,0.00,WeatherDisplay:10.37,2013-07-16 11:58:00,
2013-07-16 07:03:00,77.4,75.5,30.22,West,281,0.0,0.0,94,0.00,CLR,,0.00,WeatherDisplay:10.37,2013-07-16 12:03:00,
2013-07-16 07:08:00,77.5,75.7,30.22,West,281,0.0,0.0,94,0.00,CLR,,0.00,WeatherDisplay:10.37,2013-07-16 12:08:00,
2013-07-16 07:13:00,77.5,75.7,30.22,West,281,0.0,0.0,94,0.00,CLR,,0.00,WeatherDisplay:10.37,2013-07-16 12:13:00,
2013-07-16 07:18:00,77.7,75.9,30.22,West,281,0.0,0.0,94,0.00,CLR,,0.00,WeatherDisplay:10.37,2013-07-16 12:18:00,
2013-07-16 07:23:00,77.9,76.0,30.22,West,281,0.0,0.0,94,0.00,CLR,,0.00,WeatherDisplay:10.37,2013-07-16 12:23:00,
2013-07-16 07:28:00,78.1,76.2,30.22,West,281,0.0,0.0,94,0.00,CLR,,0.00,WeatherDisplay:10.37,2013-07-16 12:28:00,
2013-07-16 07:33:00,78.3,76.4,30.22,West,281,0.0,0.0,94,0.00,CLR,,0.00,WeatherDisplay:10.37,2013-07-16 12:33:00,
2013-07-16 07:38:00,78.8,77.2,30.22,West,281,0.0,0.0,95,0.00,CLR,,0.00,WeatherDisplay:10.37,2013-07-16 12:38:00,
2013-07-16 07:43:00,79.3,77.8,30.22,West,281,0.0,0.0,95,0.00,CLR,,0.00,WeatherDisplay:10.37,2013-07-16 12:43:00,
2013-07-16 07:48:00,79.5,78.0,30.22,West,281,0.0,0.0,95,0.00,CLR,,0.00,WeatherDisplay:10.37,2013-07-16 12:48:00,
2013-07-16 07:53:00,80.1,78.2,30.22,WNW,289,0.0,0.0,94,0.00,CLR,,0.00,WeatherDisplay:10.37,2013-07-16 12:53:00,
2013-07-16 07:58:00,80.2,78.0,30.22,WNW,289,0.0,0.0,93,0.00,CLR,,0.00,WeatherDisplay:10.37,2013-07-16 12:58:00,
2013-07-16 08:03:00,80.2,78.0,30.22,West,279,0.0,0.0,93,0.00,CLR,,0.00,WeatherDisplay:10.37,2013-07-16 13:03:00,
2013-07-16 08:08:00,80.6,78.1,30.22,WSW,237,0.0,0.0,92,0.00,CLR,,0.00,WeatherDisplay:10.37,2013-07-16 13:08:00,
2013-07-16 08:13:00,80.8,77.9,30.22,SSW,205,0.0,0.0,91,0.00,CLR,,0.00,WeatherDisplay:10.37,2013-07-16 13:13:00,
2013-07-16 08:18:00,80.8,77.6,30.22,SW,230,0.0,0.0,90,0.00,CLR,,0.00,WeatherDisplay:10.37,2013-07-16 13:18:00,
2013-07-16 08:23:00,81.0,77.4,30.22,SW,230,0.0,0.0,89,0.00,CLR,,0.00,WeatherDisplay:10.37,2013-07-16 13:23:00,
2013-07-16 08:28:00,81.1,77.2,30.22,NW,326,0.0,0.0,88,0.00,CLR,,0.00,WeatherDisplay:10.37,2013-07-16 13:28:00,
2013-07-16 08:33:00,81.1,76.9,30.22,NNW,343,0.0,0.0,87,0.00,CLR,,0.00,WeatherDisplay:10.37,2013-07-16 13:33:00,
2013-07-16 08:38:00,81.1,75.5,30.22,WSW,247,0.0,0.0,83,0.00,CLR,,0.00,WeatherDisplay:10.37,2013-07-16 13:38:00,
2013-07-16 08:43:00,81.1,74.8,30.22,WSW,247,0.0,0.0,81,0.00,CLR,,0.00,WeatherDisplay:10.37,2013-07-16 13:43:00,
2013-07-16 08:48:00,81.3,74.9,30.25,North,2,0.0,0.0,81,0.00,CLR,,0.00,WeatherDisplay:10.37,2013-07-16 13:48:00,
2013-07-16 08:53:00,81.5,73.2,30.25,NNE,13,0.0,0.0,76,0.00,CLR,,0.00,WeatherDisplay:10.37,2013-07-16 13:53:00,
2013-07-16 08:58:00,81.5,73.2,30.25,NNE,22,0.0,0.0,76,0.00,CLR,,0.00,WeatherDisplay:10.37,2013-07-16 13:58:00,
2013-07-16 09:03:00,81.5,72.4,30.22,SSW,195,0.0,0.0,74,0.00,CLR,,0.00,WeatherDisplay:10.37,2013-07-16 14:03:00,
2013-07-16 09:08:00,81.5,72.0,30.22,SSW,195,0.0,0.0,73,0.00,CLR,,0.00,WeatherDisplay:10.37,2013-07-16 14:08:00,
2013-07-16 09:13:00,81.7,71.8,30.22,SSW,195,0.0,0.0,72,0.00,CLR,,0.00,WeatherDisplay:10.37,2013-07-16 14:13:00,
2013-07-16 09:18:00,81.9,71.1,30.25,South,188,0.0,0.0,70,0.00,CLR,,0.00,WeatherDisplay:10.37,2013-07-16 14:18:00,
2013-07-16 09:23:00,81.7,70.5,30.25,WSW,254,0.0,0.0,69,0.00,CLR,,0.00,WeatherDisplay:10.37,2013-07-16 14:23:00,
2013-07-16 09:28:00,81.7,70.1,30.25,North,1,2.7,3.5,68,0.00,CLR,,0.00,WeatherDisplay:10.37,2013-07-16 14:28:00,
2013-07-16 09:33:00,82.2,69.7,30.25,NNE,33,0.0,0.0,66,0.00,CLR,,0.00,WeatherDisplay:10.37,2013-07-16 14:33:00,
2013-07-16 09:38:00,82.4,69.4,30.25,North,9,0.0,0.0,65,0.00,CLR,,0.00,WeatherDisplay:10.37,2013-07-16 14:38:00,
2013-07-16 09:43:00,82.4,68.5,30.25,NNE,16,0.0,0.0,63,0.00,CLR,,0.00,WeatherDisplay:10.37,2013-07-16 14:43:00,
2013-07-16 09:48:00,82.4,68.1,30.25,NNE,15,0.0,0.0,62,0.00,CLR,,0.00,WeatherDisplay:10.37,2013-07-16 14:48:00,
2013-07-16 09:53:00,82.2,67.4,30.25,West,279,0.0,0.0,61,0.00,CLR,,0.00,WeatherDisplay:10.37,2013-07-16 14:53:00,
2013-07-16 09:58:00,82.2,66.9,30.25,SW,218,2.2,3.5,60,0.00,CLR,,0.00,WeatherDisplay:10.37,2013-07-16 14:58:00,
2013-07-16 10:03:00,82.0,65.8,30.25,NNW,340,0.0,3.5,58,0.00,CLR,,0.00,WeatherDisplay:10.37,2013-07-16 15:03:00,
2013-07-16 10:08:00,81.9,65.6,30.25,NNW,340,0.0,0.0,58,0.00,CLR,,0.00,WeatherDisplay:10.37,2013-07-16 15:08:00,
2013-07-16 10:13:00,81.9,65.1,30.25,SSE,164,0.0,3.5,57,0.00,CLR,,0.00,WeatherDisplay:10.37,2013-07-16 15:13:00,
2013-07-16 10:18:00,82.0,64.8,30.22,SSE,165,0.0,0.0,56,0.00,CLR,,0.00,WeatherDisplay:10.37,2013-07-16 15:18:00,
2013-07-16 10:23:00,82.0,64.8,30.22,SSE,165,0.0,0.0,56,0.00,CLR,,0.00,WeatherDisplay:10.37,2013-07-16 15:23:00,
2013-07-16 10:28:00,83.1,65.8,30.22,South,177,0.0,0.0,56,0.00,CLR,,0.00,WeatherDisplay:10.37,2013-07-16 15:28:00,
2013-07-16 10:33:00,82.9,65.1,30.25,SSE,147,0.0,0.0,55,0.00,CLR,,0.00,WeatherDisplay:10.37,2013-07-16 15:33:00,
2013-07-16 10:38:00,82.8,64.9,30.25,SSE,147,0.0,0.0,55,0.00,CLR,,0.00,WeatherDisplay:10.37,2013-07-16 15:38:00,
2013-07-16 10:43:00,82.8,64.9,30.25,SSE,161,0.0,0.0,55,0.00,CLR,,0.00,WeatherDisplay:10.37,2013-07-16 15:43:00,
2013-07-16 10:48:00,83.5,65.6,30.22,SSE,154,2.2,3.5,55,0.00,CLR,,0.00,WeatherDisplay:10.37,2013-07-16 15:48:00,
2013-07-16 10:53:00,83.5,65.1,30.22,North,8,0.0,2.3,54,0.00,CLR,,0.00,WeatherDisplay:10.37,2013-07-16 15:53:00,
2013-07-16 10:58:00,83.7,65.3,30.22,NE,44,2.7,3.5,54,0.00,CLR,,0.00,WeatherDisplay:10.37,2013-07-16 15:58:00,
2013-07-16 11:03:00,83.7,63.0,30.25,NNE,14,0.0,2.3,50,0.00,CLR,,0.00,WeatherDisplay:10.37,2013-07-16 16:03:00,
2013-07-16 11:08:00,83.7,61.9,30.25,NE,41,4.0,5.8,48,0.00,CLR,,0.00,WeatherDisplay:10.37,2013-07-16 16:08:00,
2013-07-16 11:13:00,83.8,61.5,30.25,North,6,0.0,0.0,47,0.00,CLR,,0.00,WeatherDisplay:10.37,2013-07-16 16:13:00,
2013-07-16 11:18:00,84.2,61.8,30.22,South,181,0.0,3.5,47,0.00,CLR,,0.00,WeatherDisplay:10.37,2013-07-16 16:18:00,
2013-07-16 11:23:00,84.4,61.9,30.22,SE,125,2.2,2.3,47,0.00,CLR,,0.00,WeatherDisplay:10.37,2013-07-16 16:23:00,
2013-07-16 11:28:00,84.6,62.1,30.22,SE,134,0.0,2.3,47,0.00,CLR,,0.00,WeatherDisplay:10.37,2013-07-16 16:28:00,
2013-07-16 11:33:00,84.4,61.9,30.22,SE,134,0.0,0.0,47,0.00,CLR,,0.00,WeatherDisplay:10.37,2013-07-16 16:33:00,
2013-07-16 11:38:00,84.4,61.9,30.22,WSW,253,2.2,4.0,47,0.00,CLR,,0.00,WeatherDisplay:10.37,2013-07-16 16:38:00,
2013-07-16 11:43:00,84.7,62.3,30.22,WSW,250,0.0,0.0,47,0.00,CLR,,0.00,WeatherDisplay:10.37,2013-07-16 16:43:00,
2013-07-16 11:48:00,85.3,62.8,30.22,South,170,0.0,0.0,47,0.00,CLR,,0.00,WeatherDisplay:10.37,2013-07-16 16:48:00,
2013-07-16 11:53:00,85.3,62.2,30.22,SSE,160,0.0,2.3,46,0.00,CLR,,0.00,WeatherDisplay:10.37,2013-07-16 16:53:00,
2013-07-16 11:58:00,85.3,62.2,30.22,North,3,0.0,3.5,46,0.00,CLR,,0.00,WeatherDisplay:10.37,2013-07-16 16:58:00,
2013-07-16 12:03:00,85.3,61.5,30.22,North,8,2.7,5.8,45,0.00,CLR,,0.00,WeatherDisplay:10.37,2013-07-16 17:03:00,
2013-07-16 12:08:00,85.1,61.4,30.22,ENE,68,2.7,3.5,45,0.00,CLR,,0.00,WeatherDisplay:10.37,2013-07-16 17:08:00,
2013-07-16 12:13:00,85.1,61.4,30.22,NE,39,2.2,3.5,45,0.00,CLR,,0.00,WeatherDisplay:10.37,2013-07-16 17:13:00,
2013-07-16 12:18:00,84.7,61.0,30.22,ENE,67,0.0,2.3,45,0.00,CLR,,0.00,WeatherDisplay:10.37,2013-07-16 17:18:00,
2013-07-16 12:23:00,84.7,61.0,30.22,North,353,0.0,2.3,45,0.00,CLR,,0.00,WeatherDisplay:10.37,2013-07-16 17:23:00,
2013-07-16 12:28:00,84.6,60.9,30.22,NE,56,2.2,3.5,45,0.00,CLR,,0.00,WeatherDisplay:10.37,2013-07-16 17:28:00,
2013-07-16 12:33:00,84.9,61.2,30.22,SSE,160,0.0,3.5,45,0.00,CLR,,0.00,WeatherDisplay:10.37,2013-07-16 17:33:00,
2013-07-16 12:38:00,85.5,61.7,30.22,South,169,0.0,3.5,45,0.00,CLR,,0.00,WeatherDisplay:10.37,2013-07-16 17:38:00,
2013-07-16 12:43:00,85.6,61.9,30.22,North,353,2.2,4.6,45,0.00,CLR,,0.00,WeatherDisplay:10.37,2013-07-16 17:43:00,
2013-07-16 12:48:00,85.6,61.9,30.22,NE,37,0.0,3.5,45,0.00,CLR,,0.00,WeatherDisplay:10.37,2013-07-16 17:48:00,
2013-07-16 12:53:00,85.8,62.0,30.22,SW,219,0.0,2.3,45,0.00,CLR,,0.00,WeatherDisplay:10.37,2013-07-16 17:53:00,
2013-07-16 12:58:00,85.8,62.0,30.22,NNE,14,2.2,3.5,45,0.00,CLR,,0.00,WeatherDisplay:10.37,2013-07-16 17:58:00,
2013-07-16 13:03:00,86.0,61.5,30.22,SSE,160,0.0,2.3,44,0.00,CLR,,0.00,WeatherDisplay:10.37,2013-07-16 18:03:00,
2013-07-16 13:08:00,86.2,61.7,30.22,North,3,3.1,3.5,44,0.00,CLR,,0.00,WeatherDisplay:10.37,2013-07-16 18:08:00,
2013-07-16 13:13:00,86.2,61.7,30.22,ESE,106,0.0,0.0,44,0.00,CLR,,0.00,WeatherDisplay:10.37,2013-07-16 18:13:00,
2013-07-16 13:18:00,86.0,61.5,30.22,ENE,62,0.0,2.3,44,0.00,CLR,,0.00,WeatherDisplay:10.37,2013-07-16 18:18:00,
2013-07-16 13:23:00,86.0,61.5,30.22,North,10,0.0,3.5,44,0.00,CLR,,0.00,WeatherDisplay:10.37,2013-07-16 18:23:00,
2013-07-16 13:28:00,86.2,61.7,30.22,South,177,2.7,3.5,44,0.00,CLR,,0.00,WeatherDisplay:10.37,2013-07-16 18:28:00,
2013-07-16 13:33:00,86.5,62.0,30.22,ESE,120,2.2,5.8,44,0.00,CLR,,0.00,WeatherDisplay:10.37,2013-07-16 18:33:00,
2013-07-16 13:38:00,86.7,62.2,30.22,NE,39,2.2,3.5,44,0.00,CLR,,0.00,WeatherDisplay:10.37,2013-07-16 18:38:00,
2013-07-16 13:43:00,86.7,62.2,30.22,North,10,2.7,3.6,44,0.00,CLR,,0.00,WeatherDisplay:10.37,2013-07-16 18:43:00,
2013-07-16 13:48:00,86.7,62.2,30.19,North,357,0.0,5.8,44,0.00,CLR,,0.00,WeatherDisplay:10.37,2013-07-16 18:48:00,
2013-07-16 13:53:00,86.5,60.7,30.19,North,353,0.0,3.5,42,0.00,CLR,,0.00,WeatherDisplay:10.37,2013-07-16 18:53:00,
2013-07-16 13:58:00,86.5,62.0,30.19,SE,131,0.0,2.3,44,0.00,CLR,,0.00,WeatherDisplay:10.37,2013-07-16 18:58:00,
2013-07-16 14:03:00,86.5,62.0,30.19,NE,37,2.2,3.5,44,0.00,CLR,,0.00,WeatherDisplay:10.37,2013-07-16 19:03:00,
2013-07-16 14:08:00,86.4,61.9,30.19,North,2,2.7,3.5,44,0.00,CLR,,0.00,WeatherDisplay:10.37,2013-07-16 19:08:00,
2013-07-16 14:13:00,87.1,62.5,30.19,North,349,3.6,5.8,44,0.00,CLR,,0.00,WeatherDisplay:10.37,2013-07-16 19:13:00,
2013-07-16 14:18:00,87.1,61.2,30.19,ENE,60,3.1,3.5,42,0.00,CLR,,0.00,WeatherDisplay:10.37,2013-07-16 19:18:00,
2013-07-16 14:23:00,87.1,62.5,30.19,NNE,32,0.0,2.3,44,0.00,CLR,,0.00,WeatherDisplay:10.37,2013-07-16 19:23:00,
2013-07-16 14:28:00,87.3,62.7,30.19,ESE,106,2.2,3.6,44,0.00,CLR,,0.00,WeatherDisplay:10.37,2013-07-16 19:28:00,
2013-07-16 14:33:00,87.6,63.0,30.19,SSW,192,3.1,3.1,44,0.00,CLR,,0.00,WeatherDisplay:10.37,2013-07-16 19:33:00,
2013-07-16 14:38:00,87.8,63.2,30.19,SSE,157,2.2,3.5,44,0.00,CLR,,0.00,WeatherDisplay:10.37,2013-07-16 19:38:00,
2013-07-16 14:43:00,87.6,61.7,30.19,ENE,68,2.7,5.8,42,0.00,CLR,,0.00,WeatherDisplay:10.37,2013-07-16 19:43:00,
2013-07-16 14:45:00,87.6,61.7,30.19,ESE,110,2.2,3.5,42,0.00,CLR,,0.00,WeatherDisplay:10.37,2013-07-16 19:45:00,
2013-07-16 14:50:00,87.4,61.5,30.19,ENE,61,0.0,0.0,42,0.00,CLR,,0.00,WeatherDisplay:10.37,2013-07-16 19:50:00,
2013-07-16 14:55:00,87.6,63.0,30.19,North,357,0.0,3.5,44,0.00,CLR,,0.00,WeatherDisplay:10.37,2013-07-16 19:55:00,
2013-07-16 15:00:00,87.6,61.7,30.19,ENE,60,3.6,5.8,42,0.00,CLR,,0.00,WeatherDisplay:10.37,2013-07-16 20:00:00,
2013-07-16 15:05:00,87.3,61.4,30.19,SE,140,0.0,3.5,42,0.00,CLR,,0.00,WeatherDisplay:10.37,2013-07-16 20:05:00,
2013-07-16 15:10:00,87.1,62.5,30.19,East,95,0.0,0.0,44,0.00,CLR,,0.00,WeatherDisplay:10.37,2013-07-16 20:10:00,
2013-07-16 15:15:00,87.3,62.7,30.19,North,353,0.0,3.5,44,0.00,CLR,,0.00,WeatherDisplay:10.37,2013-07-16 20:15:00,
2013-07-16 15:20:00,87.8,63.2,30.19,SW,217,0.0,0.0,44,0.00,CLR,,0.00,WeatherDisplay:10.37,2013-07-16 20:20:00,
2013-07-16 15:25:00,88.3,61.7,30.19,SE,129,2.2,3.5,41,0.00,CLR,,0.00,WeatherDisplay:10.37,2013-07-16 20:25:00,
2013-07-16 15:30:00,88.2,61.5,30.19,South,187,0.0,0.0,41,0.00,CLR,,0.00,WeatherDisplay:10.37,2013-07-16 20:30:00,
2013-07-16 15:35:00,87.6,61.7,30.19,SSE,162,0.0,2.3,42,0.00,CLR,,0.00,WeatherDisplay:10.37,2013-07-16 20:35:00,
2013-07-16 15:40:00,87.3,61.4,30.19,South,179,0.0,0.0,42,0.00,CLR,,0.00,WeatherDisplay:10.37,2013-07-16 20:40:00,
2013-07-16 15:45:00,87.4,61.5,30.19,SSE,152,3.6,5.8,42,0.00,CLR,,0.00,WeatherDisplay:10.37,2013-07-16 20:45:00,
2013-07-16 15:50:00,87.8,63.2,30.19,South,176,3.1,5.8,44,0.00,CLR,,0.00,WeatherDisplay:10.37,2013-07-16 20:50:00,
2013-07-16 15:55:00,88.0,61.3,30.19,ESE,109,0.0,2.3,41,0.00,CLR,,0.00,WeatherDisplay:10.37,2013-07-16 20:55:00,
2013-07-16 16:00:00,88.3,61.7,30.19,South,189,0.0,2.3,41,0.00,CLR,,0.00,WeatherDisplay:10.37,2013-07-16 21:00:00,
2013-07-16 16:05:00,88.5,61.8,30.17,NE,43,0.0,2.3,41,0.00,CLR,,0.00,WeatherDisplay:10.37,2013-07-16 21:05:00,
2013-07-16 16:10:00,88.7,62.0,30.17,South,177,0.0,0.0,41,0.00,CLR,,0.00,WeatherDisplay:10.37,2013-07-16 21:10:00,
2013-07-16 16:15:00,88.9,62.1,30.17,SE,140,0.0,3.1,41,0.00,CLR,,0.00,WeatherDisplay:10.37,2013-07-16 21:15:00,
2013-07-16 16:20:00,88.9,62.1,30.17,ENE,78,2.2,3.5,41,0.00,CLR,,0.00,WeatherDisplay:10.37,2013-07-16 21:20:00,
2013-07-16 16:25:00,89.1,62.3,30.17,SSE,154,0.0,3.5,41,0.00,CLR,,0.00,WeatherDisplay:10.37,2013-07-16 21:25:00,
2013-07-16 16:30:00,89.1,62.3,30.17,NNE,33,0.0,0.0,41,0.00,CLR,,0.00,WeatherDisplay:10.37,2013-07-16 21:30:00,
2013-07-16 16:35:00,89.2,62.5,30.17,NNE,12,0.0,3.5,41,0.00,CLR,,0.00,WeatherDisplay:10.37,2013-07-16 21:35:00,
2013-07-16 16:40:00,89.1,62.3,30.17,ENE,61,0.0,0.0,41,0.00,CLR,,0.00,WeatherDisplay:10.37,2013-07-16 21:40:00,
2013-07-16 16:45:00,89.1,62.3,30.17,WNW,293,0.0,2.3,41,0.00,CLR,,0.00,WeatherDisplay:10.37,2013-07-16 21:45:00,
2013-07-16 16:50:00,88.9,62.1,30.17,East,81,0.0,2.3,41,0.00,CLR,,0.00,WeatherDisplay:10.37,2013-07-16 21:50:00,
2013-07-16 16:55:00,88.5,61.8,30.17,NNE,14,0.0,2.3,41,0.00,CLR,,0.00,WeatherDisplay:10.37,2013-07-16 21:55:00,
2013-07-16 17:00:00,88.2,61.5,30.17,NNE,25,4.0,5.8,41,0.00,CLR,,0.00,WeatherDisplay:10.37,2013-07-16 22:00:00,
2013-07-16 17:05:00,88.0,61.3,30.17,ENE,70,3.1,5.8,41,0.00,CLR,,0.00,WeatherDisplay:10.37,2013-07-16 22:05:00,
2013-07-16 17:10:00,88.0,61.3,30.17,ENE,73,2.2,3.5,41,0.00,CLR,,0.00,WeatherDisplay:10.37,2013-07-16 22:10:00,
2013-07-16 17:15:00,87.8,61.2,30.17,NNE,27,3.1,4.6,41,0.00,CLR,,0.00,WeatherDisplay:10.37,2013-07-16 22:15:00,
2013-07-16 17:20:00,87.3,61.4,30.19,NE,51,0.0,3.5,42,0.00,CLR,,0.00,WeatherDisplay:10.37,2013-07-16 22:20:00,
2013-07-16 17:25:00,86.5,60.7,30.19,ENE,72,0.0,0.0,42,0.00,CLR,,0.00,WeatherDisplay:10.37,2013-07-16 22:25:00,
2013-07-16 17:30:00,86.2,60.4,30.19,NNE,19,0.0,0.0,42,0.00,CLR,,0.00,WeatherDisplay:10.37,2013-07-16 22:30:00,
2013-07-16 17:35:00,85.8,61.4,30.19,South,169,0.0,0.0,44,0.00,CLR,,0.00,WeatherDisplay:10.37,2013-07-16 22:35:00,
2013-07-16 17:40:00,85.8,61.4,30.19,WSW,239,0.0,0.0,44,0.00,CLR,,0.00,WeatherDisplay:10.37,2013-07-16 22:40:00,
2013-07-16 17:45:00,86.2,61.7,30.19,West,281,0.0,0.0,44,0.00,CLR,,0.00,WeatherDisplay:10.37,2013-07-16 22:45:00,
2013-07-16 17:50:00,86.4,61.9,30.17,SSW,207,0.0,0.0,44,0.00,CLR,,0.00,WeatherDisplay:10.37,2013-07-16 22:50:00,
2013-07-16 17:55:00,86.7,62.2,30.17,NNE,20,2.2,3.5,44,0.00,CLR,,0.00,WeatherDisplay:10.37,2013-07-16 22:55:00,
2013-07-16 18:00:00,86.7,62.2,30.17,NNE,24,2.7,3.5,44,0.00,CLR,,0.00,WeatherDisplay:10.37,2013-07-16 23:00:00,
2013-07-16 18:05:00,86.7,62.2,30.19,NNW,331,3.6,5.8,44,0.00,CLR,,0.00,WeatherDisplay:10.37,2013-07-16 23:05:00,
2013-07-16 18:10:00,86.5,62.0,30.19,South,179,2.7,4.6,44,0.00,CLR,,0.00,WeatherDisplay:10.37,2013-07-16 23:10:00,
2013-07-16 18:15:00,86.5,60.7,30.19,North,0,0.0,3.5,42,0.00,CLR,,0.00,WeatherDisplay:10.37,2013-07-16 23:15:00,
2013-07-16 18:20:00,86.4,61.9,30.19,East,92,0.0,2.3,44,0.00,CLR,,0.00,WeatherDisplay:10.37,2013-07-16 23:20:00,
2013-07-16 18:25:00,86.2,60.4,30.19,South,174,0.0,2.3,42,0.00,CLR,,0.00,WeatherDisplay:10.37,2013-07-16 23:25:00,
2013-07-16 18:30:00,86.0,60.2,30.19,SE,132,0.0,0.0,42,0.00,CLR,,0.00,WeatherDisplay:10.37,2013-07-16 23:30:00,
2013-07-16 18:35:00,85.8,61.4,30.19,NNE,28,0.0,2.7,44,0.00,CLR,,0.00,WeatherDisplay:10.37,2013-07-16 23:35:00,
2013-07-16 18:40:00,85.8,61.4,30.19,North,6,0.0,0.0,44,0.00,CLR,,0.00,WeatherDisplay:10.37,2013-07-16 23:40:00,
2013-07-16 18:45:00,85.8,61.4,30.19,SE,134,0.0,0.0,44,0.00,CLR,,0.00,WeatherDisplay:10.37,2013-07-16 23:45:00,
2013-07-16 18:50:00,85.8,61.4,30.19,NNE,20,0.0,2.3,44,0.00,CLR,,0.00,WeatherDisplay:10.37,2013-07-16 23:50:00,
2013-07-16 18:55:00,85.6,61.2,30.19,NNE,19,0.0,0.0,44,0.00,CLR,,0.00,WeatherDisplay:10.37,2013-07-16 23:55:00,
2013-07-16 19:00:00,85.6,61.2,30.19,NE,47,0.0,0.0,44,0.00,CLR,,0.00,WeatherDisplay:10.37,2013-07-17 00:00:00,
2013-07-16 19:05:00,85.5,61.1,30.19,NNE,17,0.0,0.0,44,0.00,CLR,,0.00,WeatherDisplay:10.37,2013-07-17 00:05:00,
2013-07-16 19:10:00,85.5,61.1,30.19,NNE,13,0.0,2.3,44,0.00,CLR,,0.00,WeatherDisplay:10.37,2013-07-17 00:10:00,
2013-07-16 19:15:00,85.3,60.9,30.19,NNE,14,0.0,0.0,44,0.00,CLR,,0.00,WeatherDisplay:10.37,2013-07-17 00:15:00,
2013-07-16 19:20:00,85.1,60.7,30.19,NNE,14,0.0,0.0,44,0.00,CLR,,0.00,WeatherDisplay:10.37,2013-07-17 00:20:00,
2013-07-16 19:25:00,84.9,61.2,30.19,NNE,14,0.0,0.0,45,0.00,CLR,,0.00,WeatherDisplay:10.37,2013-07-17 00:25:00,
2013-07-16 19:30:00,84.6,60.9,30.19,NNE,14,0.0,0.0,45,0.00,CLR,,0.00,WeatherDisplay:10.37,2013-07-17 00:30:00,
2013-07-16 19:35:00,84.4,60.7,30.19,NNE,14,0.0,0.0,45,0.00,CLR,,0.00,WeatherDisplay:10.37,2013-07-17 00:35:00,
2013-07-16 19:40:00,84.0,60.4,30.19,NNE,14,0.0,0.0,45,0.00,CLR,,0.00,WeatherDisplay:10.37,2013-07-17 00:40:00,
2013-07-16 19:45:00,83.8,60.8,30.19,NNE,14,0.0,0.0,46,0.00,CLR,,0.00,WeatherDisplay:10.37,2013-07-17 00:45:00,
2013-07-16 19:50:00,83.5,60.5,30.19,NNE,14,0.0,0.0,46,0.00,CLR,,0.00,WeatherDisplay:10.37,2013-07-17 00:50:00,
2013-07-16 19:55:00,83.3,60.4,30.19,NNE,15,0.0,0.0,46,0.00,CLR,,0.00,WeatherDisplay:10.37,2013-07-17 00:55:00,
2013-07-16 20:00:00,82.8,59.9,30.19,NNE,15,0.0,0.0,46,0.00,CLR,,0.00,WeatherDisplay:10.37,2013-07-17 01:00:00,
2013-07-16 20:05:00,82.4,60.1,30.19,NNE,15,0.0,0.0,47,0.00,CLR,,0.00,WeatherDisplay:10.37,2013-07-17 01:05:00,
2013-07-16 20:10:00,82.2,60.6,30.19,NNE,15,0.0,0.0,48,0.00,CLR,,0.00,WeatherDisplay:10.37,2013-07-17 01:10:00,
2013-07-16 20:15:00,82.0,60.4,30.19,NNE,15,0.0,0.0,48,0.00,CLR,,0.00,WeatherDisplay:10.37,2013-07-17 01:15:00,
2013-07-16 20:20:00,82.0,60.4,30.19,NNE,15,0.0,0.0,48,0.00,CLR,,0.00,WeatherDisplay:10.37,2013-07-17 01:20:00,
2013-07-16 20:25:00,81.7,60.1,30.19,NNE,15,0.0,0.0,48,0.00,CLR,,0.00,WeatherDisplay:10.37,2013-07-17 01:25:00,
2013-07-16 20:30:00,81.3,60.3,30.19,NNE,15,0.0,0.0,49,0.00,CLR,,0.00,WeatherDisplay:10.37,2013-07-17 01:30:00,
2013-07-16 20:35:00,81.1,60.2,30.19,NNE,15,0.0,0.0,49,0.00,CLR,,0.00,WeatherDisplay:10.37,2013-07-17 01:35:00,
2013-07-16 20:40:00,81.0,60.6,30.19,NNE,15,0.0,0.0,50,0.00,CLR,,0.00,WeatherDisplay:10.37,2013-07-17 01:40:00,
2013-07-16 20:45:00,80.8,60.4,30.19,NNE,15,0.0,0.0,50,0.00,CLR,,0.00,WeatherDisplay:10.37,2013-07-17 01:45:00,
2013-07-16 20:50:00,80.6,60.8,30.19,NNE,15,0.0,0.0,51,0.00,CLR,,0.00,WeatherDisplay:10.37,2013-07-17 01:50:00,
2013-07-16 20:55:00,80.2,61.0,30.19,NNE,15,0.0,0.0,52,0.00,CLR,,0.00,WeatherDisplay:10.37,2013-07-17 01:55:00,
2013-07-16 21:00:00,80.2,61.0,30.19,NNE,15,0.0,0.0,52,0.00,CLR,,0.00,WeatherDisplay:10.37,2013-07-17 02:00:00,
2013-07-16 21:05:00,80.4,61.7,30.19,NNE,15,0.0,0.0,53,0.00,CLR,,0.00,WeatherDisplay:10.37,2013-07-17 02:05:00,
2013-07-16 21:10:00,80.2,61.6,30.19,NNE,15,0.0,0.0,53,0.00,CLR,,0.00,WeatherDisplay:10.37,2013-07-17 02:10:00,
2013-07-16 21:15:00,80.2,62.1,30.19,NNE,15,0.0,0.0,54,0.00,CLR,,0.00,WeatherDisplay:10.37,2013-07-17 02:15:00,
2013-07-16 21:20:00,80.2,62.1,30.19,NNE,15,0.0,0.0,54,0.00,CLR,,0.00,WeatherDisplay:10.37,2013-07-17 02:20:00,
2013-07-16 21:25:00,80.1,61.9,30.19,NNE,15,0.0,0.0,54,0.00,CLR,,0.00,WeatherDisplay:10.37,2013-07-17 02:25:00,
2013-07-16 21:30:00,80.1,61.9,30.19,NNE,15,0.0,0.0,54,0.00,CLR,,0.00,WeatherDisplay:10.37,2013-07-17 02:30:00,
2013-07-16 21:35:00,80.1,61.9,30.19,NNE,15,0.0,0.0,54,0.00,CLR,,0.00,WeatherDisplay:10.37,2013-07-17 02:35:00,
2013-07-16 21:40:00,80.1,62.4,30.19,NNE,15,0.0,0.0,55,0.00,CLR,,0.00,WeatherDisplay:10.37,2013-07-17 02:40:00,
2013-07-16 21:45:00,79.9,62.8,30.19,NNE,15,0.0,0.0,56,0.00,CLR,,0.00,WeatherDisplay:10.37,2013-07-17 02:45:00,
2013-07-16 21:50:00,79.9,62.8,30.22,NNE,15,0.0,0.0,56,0.00,CLR,,0.00,WeatherDisplay:10.37,2013-07-17 02:50:00,
2013-07-16 21:55:00,79.9,62.8,30.22,NNE,15,0.0,0.0,56,0.00,CLR,,0.00,WeatherDisplay:10.37,2013-07-17 02:55:00,
2013-07-16 22:00:00,79.7,62.6,30.22,NNE,15,0.0,0.0,56,0.00,CLR,,0.00,WeatherDisplay:10.37,2013-07-17 03:00:00,
2013-07-16 22:05:00,79.7,62.6,30.22,NNE,15,0.0,0.0,56,0.00,CLR,,0.00,WeatherDisplay:10.37,2013-07-17 03:05:00,
2013-07-16 22:10:00,79.7,62.6,30.22,NNE,15,0.0,0.0,56,0.00,CLR,,0.00,WeatherDisplay:10.37,2013-07-17 03:10:00,
2013-07-16 22:15:00,79.5,62.4,30.22,NNE,15,0.0,0.0,56,0.00,CLR,,0.00,WeatherDisplay:10.37,2013-07-17 03:15:00,
2013-07-16 22:20:00,79.5,62.4,30.22,NNE,15,0.0,0.0,56,0.00,CLR,,0.00,WeatherDisplay:10.37,2013-07-17 03:20:00,
2013-07-16 22:25:00,79.5,62.4,30.22,NNE,15,0.0,0.0,56,0.00,CLR,,0.00,WeatherDisplay:10.37,2013-07-17 03:25:00,
2013-07-16 22:30:00,79.3,62.8,30.22,NNE,15,0.0,0.0,57,0.00,CLR,,0.00,WeatherDisplay:10.37,2013-07-17 03:30:00,
2013-07-16 22:35:00,79.3,62.8,30.22,NNE,15,0.0,0.0,57,0.00,CLR,,0.00,WeatherDisplay:10.37,2013-07-17 03:35:00,
2013-07-16 22:40:00,79.3,62.8,30.22,NNE,15,0.0,0.0,57,0.00,CLR,,0.00,WeatherDisplay:10.37,2013-07-17 03:40:00,
2013-07-16 22:45:00,79.3,62.8,30.22,NNE,15,0.0,0.0,57,0.00,CLR,,0.00,WeatherDisplay:10.37,2013-07-17 03:45:00,
2013-07-16 22:50:00,79.2,62.6,30.22,NNE,15,0.0,0.0,57,0.00,CLR,,0.00,WeatherDisplay:10.37,2013-07-17 03:50:00,
2013-07-16 22:55:00,79.2,62.6,30.22,NNE,15,0.0,0.0,57,0.00,CLR,,0.00,WeatherDisplay:10.37,2013-07-17 03:55:00,
2013-07-16 23:00:00,79.2,62.6,30.22,NNE,15,0.0,0.0,57,0.00,CLR,,0.00,WeatherDisplay:10.37,2013-07-17 04:00:00,
2013-07-16 23:01:00,79.2,62.6,30.22,NNE,15,0.0,0.0,57,0.00,CLR,,0.00,WeatherDisplay:10.37,2013-07-17 04:01:00,
2013-07-16 23:02:00,79.0,62.9,30.22,NNE,15,0.0,0.0,58,0.00,CLR,,0.00,WeatherDisplay:10.37,2013-07-17 04:02:00,
2013-07-16 23:07:00,79.0,62.9,30.22,NNE,15,0.0,0.0,58,0.00,CLR,,0.00,WeatherDisplay:10.37,2013-07-17 04:07:00,
2013-07-16 23:12:00,79.0,62.9,30.22,NNE,15,0.0,0.0,58,0.00,CLR,,0.00,WeatherDisplay:10.37,2013-07-17 04:12:00,
2013-07-16 23:17:00,78.8,62.8,30.22,NNE,15,0.0,0.0,58,0.00,CLR,,0.00,WeatherDisplay:10.37,2013-07-17 04:17:00,
2013-07-16 23:22:00,78.6,63.1,30.22,NNE,15,0.0,0.0,59,0.00,CLR,,0.00,WeatherDisplay:10.37,2013-07-17 04:22:00,
2013-07-16 23:27:00,78.4,62.9,30.22,NNE,15,0.0,0.0,59,0.00,CLR,,0.00,WeatherDisplay:10.37,2013-07-17 04:27:00,
2013-07-16 23:32:00,78.4,62.9,30.22,NNE,15,0.0,0.0,59,0.00,CLR,,0.00,WeatherDisplay:10.37,2013-07-17 04:32:00,
2013-07-16 23:37:00,78.4,62.9,30.22,NNE,15,0.0,0.0,59,0.00,CLR,,0.00,WeatherDisplay:10.37,2013-07-17 04:37:00,
2013-07-16 23:42:00,78.4,63.4,30.22,NNE,15,0.0,0.0,60,0.00,CLR,,0.00,WeatherDisplay:10.37,2013-07-17 04:42:00,
2013-07-16 23:47:00,78.3,63.2,30.22,NNE,15,0.0,0.0,60,0.00,CLR,,0.00,WeatherDisplay:10.37,2013-07-17 04:47:00,
2013-07-16 23:52:00,78.3,63.2,30.22,NNE,15,0.0,0.0,60,0.00,CLR,,0.00,WeatherDisplay:10.37,2013-07-17 04:52:00,
2013-07-16 23:56:00,78.3,63.2,30.22,NNE,15,0.0,0.0,60,0.00,CLR,,0.00,WeatherDisplay:10.37,2013-07-17 04:56:00,
2013-07-16 23:59:00,78.3,63.2,30.22,NNE,15,0.0,0.0,60,0.00,CLR,,0.00,WeatherDisplay:10.37,2013-07-17 04:59:00,